Terminal Aerodrome Forecast
Issued by NWS

Home | Current Version | Previous Version | Text Only | Print | Product List | Glossary On
Versions: 1 2 3 4 5 6 7 8 9 10 11 12
000
FTUS43 KDTX 192300
TAFMBS
TAF
KMBS 192322Z 2000/2024 20010KT P6SM BKN250
     FM201200 23014G22KT P6SM BKN060 BKN120
     FM201600 23015G26KT 6SM SHRA BKN050 OVC080
     FM202200 24012KT 5SM BR BKN025 OVC040=

USA.gov is the U.S. government's official web portal to all federal, state and local government web resources and services.